createdAt,value
2018-01-03T00:02:09.607Z,1.10
2018-01-03T00:04:37.333Z,1.00
2018-01-03T00:07:03.217Z,0.80
2018-01-03T00:09:32.380Z,0.70
2018-01-03T00:11:58.223Z,0.90
2018-01-03T00:14:26.083Z,0.57
2018-01-03T00:16:51.887Z,0.60
2018-01-03T00:19:20.956Z,1.13
2018-01-03T00:21:46.828Z,0.70
2018-01-03T00:24:16.470Z,0.80
2018-01-03T00:26:42.402Z,0.90
2018-01-03T00:29:11.159Z,0.70
2018-01-03T00:31:36.972Z,0.75
2018-01-03T00:34:02.843Z,0.67
2018-01-03T00:36:28.674Z,0.70
2018-01-03T00:38:54.821Z,0.70
2018-01-03T00:41:23.501Z,0.80
2018-01-03T00:43:49.417Z,0.70
2018-01-03T00:46:17.016Z,0.70
2018-01-03T00:48:42.910Z,0.70
2018-01-03T00:51:12.026Z,0.60
2018-01-03T00:53:37.898Z,0.50
2018-01-03T00:56:07.129Z,1.27
2018-01-03T00:58:32.968Z,0.90
2018-01-03T01:01:01.906Z,2.20
2018-01-03T01:03:27.749Z,0.50
2018-01-03T01:05:55.320Z,0.80
2018-01-03T01:08:21.186Z,0.60
2018-01-03T01:10:47.033Z,0.70
2018-01-03T01:13:12.904Z,0.90
2018-01-03T01:15:38.803Z,0.63
2018-01-03T01:18:07.877Z,0.70
2018-01-03T01:20:33.742Z,0.65
2018-01-03T01:23:02.915Z,0.67
2018-01-03T01:25:28.779Z,0.68
2018-01-03T01:27:56.566Z,0.60
2018-01-03T01:30:22.461Z,0.73
2018-01-03T01:32:52.752Z,0.57
2018-01-03T01:35:18.633Z,0.50
2018-01-03T01:37:46.271Z,0.93
2018-01-03T01:40:12.212Z,0.60
2018-01-03T01:42:41.443Z,0.73
2018-01-03T01:45:07.315Z,0.70
2018-01-03T01:47:33.234Z,0.60
2018-01-03T01:49:59.126Z,0.57
2018-01-03T01:52:24.960Z,0.63
2018-01-03T01:54:52.568Z,0.80
2018-01-03T01:57:18.444Z,0.60
2018-01-03T01:59:47.800Z,0.70
2018-01-03T02:02:13.707Z,0.70
2018-01-03T02:04:43.436Z,1.10
2018-01-03T02:07:09.305Z,0.90
2018-01-03T02:09:38.653Z,0.87
2018-01-03T02:12:04.528Z,1.00
2018-01-03T02:14:31.609Z,0.90
2018-01-03T02:16:57.468Z,0.85
2018-01-03T02:19:27.574Z,0.90
2018-01-03T02:21:53.498Z,0.80
2018-01-03T02:24:19.309Z,1.50
2018-01-03T02:26:45.189Z,0.80
2018-01-03T02:29:11.078Z,0.90
2018-01-03T02:31:38.505Z,0.90
2018-01-03T02:34:04.443Z,1.25
2018-01-03T02:36:33.544Z,1.10
2018-01-03T02:38:59.391Z,0.80
2018-01-03T02:41:27.561Z,1.40
2018-01-03T02:43:53.429Z,1.35
2018-01-03T02:46:22.253Z,1.43
2018-01-03T02:48:48.140Z,1.52
2018-01-03T02:51:18.244Z,1.07
2018-01-03T02:53:44.115Z,0.95
2018-01-03T02:56:11.596Z,1.10
2018-01-03T02:58:37.446Z,1.00
2018-01-03T03:01:03.320Z,1.20
2018-01-03T03:03:29.225Z,0.90
2018-01-03T03:05:55.093Z,0.80
2018-01-03T03:08:24.688Z,1.07
2018-01-03T03:10:50.567Z,0.93
2018-01-03T03:13:19.678Z,0.90
2018-01-03T03:15:45.579Z,0.90
2018-01-03T03:18:12.908Z,1.10
2018-01-03T03:20:38.766Z,0.70
2018-01-03T03:23:07.446Z,0.60
2018-01-03T03:25:33.292Z,0.80
2018-01-03T03:28:02.769Z,0.70
2018-01-03T03:30:28.641Z,0.60
2018-01-03T03:32:58.423Z,0.80
2018-01-03T03:35:24.325Z,0.60
2018-01-03T03:37:50.179Z,0.50
2018-01-03T03:40:16.006Z,0.73
2018-01-03T03:42:41.902Z,0.67
2018-01-03T03:45:08.793Z,0.70
2018-01-03T03:47:34.677Z,2.67
2018-01-03T03:50:04.059Z,1.10
2018-01-03T03:52:29.944Z,2.35
2018-01-03T03:54:59.046Z,2.30
2018-01-03T03:57:24.924Z,1.50
2018-01-03T03:59:53.890Z,1.00
2018-01-03T04:02:19.726Z,1.55
2018-01-03T04:04:47.378Z,0.87
2018-01-03T04:07:13.264Z,0.80
2018-01-03T04:09:42.184Z,0.60
2018-01-03T04:12:08.060Z,0.60
2018-01-03T04:14:33.922Z,0.50
2018-01-03T04:16:59.815Z,0.50
2018-01-03T04:19:25.680Z,0.50
2018-01-03T04:21:54.442Z,0.60
2018-01-03T04:24:20.300Z,0.80
2018-01-03T04:26:49.599Z,0.70
2018-01-03T04:29:15.459Z,0.65
2018-01-03T04:31:44.931Z,0.50
2018-01-03T04:34:10.842Z,0.70
2018-01-03T04:36:39.832Z,0.60
2018-01-03T04:39:05.707Z,0.60
2018-01-03T04:41:33.172Z,0.60
2018-01-03T04:43:59.069Z,0.50
2018-01-03T04:46:28.363Z,0.50
2018-01-03T04:48:54.219Z,0.47
2018-01-03T04:51:20.119Z,0.53
2018-01-03T04:53:46.017Z,0.60
2018-01-03T04:56:11.915Z,0.50
2018-01-03T04:58:39.348Z,0.67
2018-01-03T05:01:05.186Z,0.70
2018-01-03T05:03:34.551Z,1.17
2018-01-03T05:06:00.435Z,0.80
2018-01-03T05:08:28.841Z,0.60
2018-01-03T05:10:54.688Z,0.50
2018-01-03T05:13:27.398Z,0.70
2018-01-03T05:15:53.253Z,0.70
2018-01-03T05:18:19.184Z,0.60
2018-01-03T05:20:45.049Z,0.80
2018-01-03T05:23:14.317Z,0.63
2018-01-03T05:25:40.211Z,0.57
2018-01-03T05:28:06.106Z,0.70
2018-01-03T05:30:31.985Z,0.60
2018-01-03T05:32:57.852Z,0.70
2018-01-03T05:35:25.142Z,0.63
2018-01-03T05:37:51.017Z,0.60
2018-01-03T05:40:20.348Z,0.70
2018-01-03T05:42:46.181Z,0.52
2018-01-03T05:45:14.249Z,0.57
2018-01-03T05:47:40.144Z,0.50
2018-01-03T05:50:09.745Z,0.60
2018-01-03T05:52:35.588Z,0.60
2018-01-03T05:55:03.505Z,0.50
2018-01-03T05:57:29.369Z,0.50
2018-01-03T05:59:58.448Z,0.50
2018-01-03T06:02:24.354Z,0.50
2018-01-03T06:04:50.208Z,0.50
2018-01-03T06:07:16.102Z,0.50
2018-01-03T06:09:41.950Z,0.47
2018-01-03T06:12:09.651Z,0.50
2018-01-03T06:14:35.493Z,0.50
2018-01-03T06:19:32.274Z,0.50
2018-01-03T06:21:59.776Z,0.43
2018-01-03T06:24:25.654Z,0.50
2018-01-03T06:26:54.766Z,0.53
2018-01-03T06:29:20.690Z,0.40
2018-01-03T06:31:48.871Z,0.50
2018-01-03T06:34:14.773Z,0.50
2018-01-03T06:36:44.454Z,0.50
2018-01-03T06:39:10.291Z,0.50
2018-01-03T06:41:36.210Z,0.60
2018-01-03T06:44:02.113Z,0.50
2018-01-03T06:46:28.020Z,0.50
2018-01-03T06:48:57.190Z,0.50
2018-01-03T06:51:23.061Z,0.52
2018-01-03T06:53:50.224Z,0.50
2018-01-03T06:56:16.100Z,0.60
2018-01-03T06:58:44.428Z,0.50
2018-01-03T07:01:10.308Z,0.62
2018-01-03T07:03:39.236Z,0.60
2018-01-03T07:06:05.144Z,0.60
2018-01-03T07:08:34.060Z,0.50
2018-01-03T07:10:59.948Z,0.60
2018-01-03T07:13:28.778Z,0.70
2018-01-03T07:15:54.691Z,0.52
2018-01-03T07:18:20.574Z,0.90
2018-01-03T07:20:46.419Z,0.60
2018-01-03T07:23:12.306Z,1.10
2018-01-03T07:25:41.970Z,0.60
2018-01-03T07:28:07.821Z,0.80
2018-01-03T07:30:36.913Z,0.73
2018-01-03T07:33:02.782Z,0.73
2018-01-03T07:35:30.190Z,0.97
2018-01-03T07:37:56.076Z,1.00
2018-01-03T07:40:25.117Z,0.60
2018-01-03T07:42:51.007Z,1.48
2018-01-03T07:45:20.151Z,1.23
2018-01-03T07:47:45.945Z,1.30
2018-01-03T07:50:15.051Z,0.70
2018-01-03T07:52:40.889Z,1.40
2018-01-03T07:55:06.739Z,0.80
2018-01-03T07:57:32.601Z,0.80
2018-01-03T07:59:58.437Z,1.27
2018-01-03T08:02:25.805Z,0.90
2018-01-03T08:04:51.680Z,0.93
2018-01-03T08:07:20.780Z,1.00
2018-01-03T08:09:46.656Z,1.62
2018-01-03T08:12:15.790Z,1.60
2018-01-03T08:14:41.621Z,1.60
2018-01-03T08:17:11.390Z,1.37
2018-01-03T08:19:37.236Z,1.48
2018-01-03T08:22:06.588Z,1.20
2018-01-03T08:24:32.471Z,1.30
2018-01-03T08:26:59.662Z,1.27
2018-01-03T08:29:25.485Z,2.47
2018-01-03T08:31:51.359Z,1.23
2018-01-03T08:34:17.172Z,1.50
2018-01-03T08:36:43.015Z,2.07
2018-01-03T08:39:11.019Z,1.20
2018-01-03T08:41:36.857Z,1.35
2018-01-03T08:44:05.611Z,0.90
2018-01-03T08:46:31.466Z,1.00
2018-01-03T08:49:00.287Z,1.40
2018-01-03T08:51:26.192Z,1.25
2018-01-03T08:53:55.410Z,2.97
2018-01-03T08:56:21.298Z,1.20
2018-01-03T08:58:49.915Z,1.10
2018-01-03T09:01:15.741Z,1.15
2018-01-03T09:03:45.240Z,1.20
2018-01-03T09:06:11.184Z,1.50
2018-01-03T09:08:37.015Z,1.20
2018-01-03T09:11:02.880Z,1.63
2018-01-03T09:13:28.772Z,0.70
2018-01-03T09:15:58.151Z,0.80
2018-01-03T09:18:23.998Z,0.90
2018-01-03T09:20:51.590Z,0.90
2018-01-03T09:23:17.423Z,0.90
2018-01-03T09:25:46.557Z,0.70
2018-01-03T09:28:12.369Z,0.80
2018-01-03T09:30:40.819Z,0.70
2018-01-03T09:33:06.671Z,0.82
2018-01-03T09:35:36.021Z,0.80
2018-01-03T09:38:01.870Z,0.70
2018-01-03T09:40:30.822Z,0.60
2018-01-03T09:42:56.672Z,0.98
2018-01-03T09:45:22.543Z,0.60
2018-01-03T09:47:48.413Z,0.80
2018-01-03T09:50:14.313Z,0.80
2018-01-03T09:52:43.435Z,0.70
2018-01-03T09:55:09.307Z,0.80
2018-01-03T09:57:36.832Z,0.93
2018-01-03T10:00:02.695Z,0.50
2018-01-03T10:02:32.031Z,0.70
2018-01-03T10:04:57.916Z,0.75
2018-01-03T10:07:25.907Z,0.73
2018-01-03T10:09:51.750Z,0.70
2018-01-03T10:12:21.303Z,0.60
2018-01-03T10:14:47.115Z,0.70
2018-01-03T10:17:16.617Z,0.50
2018-01-03T10:19:42.477Z,0.70
2018-01-03T10:22:08.312Z,0.80
2018-01-03T10:24:34.169Z,0.60
2018-01-03T10:27:00.054Z,0.50
2018-01-03T10:29:28.910Z,0.70
2018-01-03T10:31:54.735Z,0.70
2018-01-03T10:34:21.933Z,0.60
2018-01-03T10:36:47.792Z,0.50
2018-01-03T10:39:17.607Z,0.80
2018-01-03T10:41:43.492Z,0.62
2018-01-03T10:44:11.748Z,0.60
2018-01-03T10:46:37.630Z,0.60
2018-01-03T10:49:07.297Z,0.77
2018-01-03T10:51:33.197Z,0.70
2018-01-03T10:54:02.482Z,0.80
2018-01-03T10:56:28.344Z,0.60
2018-01-03T10:58:54.219Z,1.33
2018-01-03T11:01:20.077Z,0.70
2018-01-03T11:03:46.095Z,2.43
2018-01-03T11:06:13.066Z,1.52
2018-01-03T11:08:38.886Z,1.02
2018-01-03T11:11:06.818Z,0.83
2018-01-03T11:13:32.670Z,1.12
2018-01-03T11:18:29.484Z,0.93
2018-01-03T11:20:56.572Z,1.00
2018-01-03T11:23:22.426Z,0.70
2018-01-03T11:25:52.056Z,1.10
2018-01-03T11:28:17.890Z,1.35
2018-01-03T11:30:46.903Z,1.13
2018-01-03T11:33:12.769Z,1.80
2018-01-03T11:35:38.635Z,1.27
2018-01-03T11:38:04.504Z,1.67
2018-01-03T11:40:30.340Z,1.20
2018-01-03T11:42:57.856Z,1.70
2018-01-03T11:45:23.698Z,0.93
2018-01-03T11:47:53.278Z,1.10
2018-01-03T11:50:19.157Z,0.80
2018-01-03T11:52:47.990Z,0.87
2018-01-03T11:55:13.855Z,1.00
2018-01-03T11:57:41.794Z,1.00
2018-01-03T12:00:07.638Z,1.20
2018-01-03T12:02:36.527Z,1.20
2018-01-03T12:05:02.385Z,1.10
2018-01-03T12:07:32.008Z,1.40
2018-01-03T12:09:57.886Z,1.10
2018-01-03T12:12:23.740Z,1.63
2018-01-03T12:14:49.638Z,1.33
2018-01-03T12:17:15.478Z,1.50
2018-01-03T12:19:42.956Z,0.90
2018-01-03T12:22:08.853Z,1.35
2018-01-03T12:24:38.910Z,1.20
2018-01-03T12:27:04.772Z,1.10
2018-01-03T12:29:32.480Z,2.60
2018-01-03T12:31:58.366Z,1.40
2018-01-03T12:34:27.815Z,1.10
2018-01-03T12:36:53.788Z,1.48
2018-01-03T12:39:23.183Z,2.27
2018-01-03T12:41:49.007Z,1.52
2018-01-03T12:44:16.736Z,2.37
2018-01-03T12:46:42.568Z,1.65
2018-01-03T12:49:08.488Z,1.10
2018-01-03T12:51:34.327Z,1.43
2018-01-03T12:54:00.222Z,2.33
2018-01-03T12:56:29.759Z,1.70
2018-01-03T12:58:55.616Z,1.52
2018-01-03T13:01:23.033Z,1.93
2018-01-03T13:03:49.529Z,1.75
2018-01-03T13:06:19.243Z,2.60
2018-01-03T13:08:45.090Z,1.92
2018-01-03T13:11:12.561Z,2.40
2018-01-03T13:13:38.405Z,1.77
2018-01-03T13:16:07.505Z,1.50
2018-01-03T13:18:33.319Z,2.03
2018-01-03T13:21:02.674Z,2.47
2018-01-03T13:23:28.487Z,2.05
2018-01-03T13:25:55.002Z,1.60
2018-01-03T13:28:20.861Z,2.47
2018-01-03T13:30:46.698Z,1.20
2018-01-03T13:33:14.337Z,2.23
2018-01-03T13:35:40.174Z,3.70
2018-01-03T13:38:09.608Z,1.67
2018-01-03T13:40:35.436Z,1.52
2018-01-03T13:43:03.256Z,2.00
2018-01-03T13:45:29.095Z,2.15
2018-01-03T13:47:58.291Z,2.30
2018-01-03T13:50:24.149Z,2.80
2018-01-03T13:52:53.376Z,2.83
2018-01-03T13:55:19.226Z,1.75
2018-01-03T13:57:48.571Z,2.13
2018-01-03T14:00:14.412Z,2.30
2018-01-03T14:02:40.319Z,1.70
2018-01-03T14:05:06.175Z,0.90
2018-01-03T14:07:32.021Z,2.27
2018-01-03T14:09:59.469Z,2.33
2018-01-03T14:12:25.301Z,1.75
2018-01-03T14:14:54.981Z,2.20
2018-01-03T14:17:20.841Z,1.50
2018-01-03T14:19:48.338Z,2.87
2018-01-03T14:22:14.183Z,2.30
2018-01-03T14:24:44.353Z,2.37
2018-01-03T14:27:10.162Z,1.15
2018-01-03T14:29:37.925Z,2.17
2018-01-03T14:32:03.795Z,3.00
2018-01-03T14:34:32.681Z,2.03
2018-01-03T14:36:58.505Z,2.10
2018-01-03T14:39:24.322Z,3.20
2018-01-03T14:41:50.195Z,1.93
2018-01-03T14:44:16.032Z,2.00
2018-01-03T14:46:45.213Z,1.80
2018-01-03T14:49:11.042Z,1.58
2018-01-03T14:51:39.058Z,1.47
2018-01-03T14:54:04.893Z,1.75
2018-01-03T14:56:33.539Z,2.47
2018-01-03T14:58:59.392Z,2.15
2018-01-03T15:01:28.849Z,2.80
2018-01-03T15:03:55.647Z,1.87
2018-01-03T15:06:23.112Z,1.42
2018-01-03T15:08:48.969Z,1.20
2018-01-03T15:11:17.512Z,2.00
2018-01-03T15:13:43.399Z,1.85
2018-01-03T15:16:09.305Z,2.10
2018-01-03T15:18:35.166Z,1.50
2018-01-03T15:21:01.018Z,1.70
2018-01-03T15:23:32.728Z,1.53
2018-01-03T15:25:58.575Z,3.05
2018-01-03T15:28:24.442Z,1.73
2018-01-03T15:30:50.285Z,3.53
2018-01-03T15:33:19.175Z,2.20
2018-01-03T15:35:45.073Z,2.25
2018-01-03T15:38:14.497Z,1.80
2018-01-03T15:40:40.336Z,1.83
2018-01-03T15:43:09.350Z,3.70
2018-01-03T15:45:35.203Z,1.73
2018-01-03T15:48:07.442Z,2.90
2018-01-03T15:50:33.335Z,1.98
2018-01-03T15:52:59.236Z,2.17
2018-01-03T15:55:25.064Z,2.27
2018-01-03T15:57:50.891Z,2.60
2018-01-03T16:00:16.778Z,2.30
2018-01-03T16:02:42.687Z,1.97
2018-01-03T16:05:10.345Z,2.20
2018-01-03T16:07:36.209Z,2.25
2018-01-03T16:10:05.328Z,2.53
2018-01-03T16:12:31.202Z,2.50
2018-01-03T16:15:00.068Z,3.67
2018-01-03T16:17:26.011Z,2.30
2018-01-03T16:19:55.202Z,2.47
2018-01-03T16:22:21.069Z,2.40
2018-01-03T16:24:50.436Z,2.10
2018-01-03T16:27:16.283Z,2.75
2018-01-03T16:29:42.151Z,3.23
2018-01-03T16:32:08.068Z,4.00
2018-01-03T16:34:33.982Z,3.03
2018-01-03T16:37:00.388Z,2.77
2018-01-03T16:39:26.285Z,2.80
2018-01-03T16:41:55.695Z,2.23
2018-01-03T16:44:21.589Z,1.95
2018-01-03T16:46:49.682Z,2.43
2018-01-03T16:49:15.530Z,2.72
2018-01-03T16:51:51.016Z,2.53
2018-01-03T16:54:16.896Z,2.10
2018-01-03T16:56:42.812Z,3.00
2018-01-03T16:59:08.697Z,2.40
2018-01-03T17:01:34.599Z,2.13
2018-01-03T17:04:00.543Z,2.50
2018-01-03T17:06:26.438Z,2.53
2018-01-03T17:08:52.307Z,1.90
2018-01-03T17:11:18.159Z,2.70
2018-01-03T17:13:46.082Z,2.93
2018-01-03T17:16:11.952Z,2.37
2018-01-03T17:18:40.862Z,3.00
2018-01-03T17:21:06.736Z,2.17
2018-01-03T17:23:35.010Z,5.30
2018-01-03T17:26:00.908Z,5.90
2018-01-03T17:28:30.852Z,2.90
2018-01-03T17:30:56.715Z,4.05
2018-01-03T17:33:25.507Z,2.83
2018-01-03T17:35:51.373Z,5.32
2018-01-03T17:38:20.654Z,2.90
2018-01-03T17:40:46.507Z,2.70
2018-01-03T17:43:12.411Z,4.20
2018-01-03T17:45:38.290Z,4.90
2018-01-03T17:48:04.204Z,3.90
2018-01-03T17:50:31.085Z,3.40
2018-01-03T17:52:56.937Z,3.87
2018-01-03T17:55:26.417Z,4.17
2018-01-03T17:57:52.301Z,4.05
2018-01-03T18:00:21.111Z,3.80
2018-01-03T18:02:47.034Z,2.80
2018-01-03T18:05:14.756Z,3.43
2018-01-03T18:07:40.668Z,2.42
2018-01-03T18:10:09.636Z,3.03
2018-01-03T18:12:35.520Z,2.72
2018-01-03T18:17:51.532Z,3.85
2018-01-03T18:20:17.398Z,3.13
2018-01-03T18:22:43.248Z,3.00
2018-01-03T18:25:09.100Z,1.70
2018-01-03T18:30:26.889Z,3.95
2018-01-03T18:32:52.724Z,2.78
2018-01-03T18:35:18.571Z,3.03
2018-01-03T18:37:44.372Z,3.20
2018-01-03T18:40:10.231Z,2.77
2018-01-03T18:42:36.073Z,2.77
2018-01-03T18:45:01.957Z,2.80
2018-01-03T18:47:27.806Z,4.23
2018-01-03T18:49:53.629Z,2.97
2018-01-03T18:52:19.459Z,2.60
2018-01-03T18:54:45.298Z,2.10
2018-01-03T18:57:11.116Z,3.70
2018-01-03T18:59:36.943Z,2.27
2018-01-03T19:02:02.833Z,2.83
2018-01-03T19:04:28.632Z,1.70
2018-01-03T19:06:54.474Z,2.40
2018-01-03T19:09:20.334Z,2.17
2018-01-03T19:11:46.182Z,2.43
2018-01-03T19:14:11.997Z,3.20
2018-01-03T19:16:37.840Z,2.40
2018-01-03T19:19:03.682Z,1.63
2018-01-03T19:21:29.551Z,2.93
2018-01-03T19:23:55.369Z,2.20
2018-01-03T19:26:21.197Z,2.37
2018-01-03T19:28:47.054Z,2.30
2018-01-03T19:31:12.901Z,2.87
2018-01-03T19:33:38.716Z,2.57
2018-01-03T19:36:04.563Z,2.10
2018-01-03T19:38:30.385Z,1.87
2018-01-03T19:40:56.238Z,1.93
2018-01-03T19:43:22.059Z,1.57
2018-01-03T19:45:47.902Z,2.90
2018-01-03T19:48:13.746Z,1.90
2018-01-03T19:50:39.603Z,2.10
2018-01-03T19:53:05.421Z,3.77
2018-01-03T19:55:31.252Z,2.03
2018-01-03T19:57:57.094Z,2.73
2018-01-03T20:00:26.068Z,2.87
2018-01-03T20:02:51.874Z,1.50
2018-01-03T20:05:21.503Z,2.87
2018-01-03T20:07:47.345Z,3.25
2018-01-03T20:10:13.218Z,3.90
2018-01-03T20:12:39.069Z,3.67
2018-01-03T20:15:04.878Z,3.63
2018-01-03T20:17:32.520Z,4.47
2018-01-03T20:19:58.360Z,3.60
2018-01-03T20:22:26.749Z,4.28
2018-01-03T20:24:52.585Z,3.97
2018-01-03T20:27:21.207Z,5.50
2018-01-03T20:29:47.030Z,3.28
2018-01-03T20:34:43.753Z,3.25
2018-01-03T20:37:11.118Z,3.90
2018-01-03T20:39:36.913Z,3.12
2018-01-03T20:42:06.518Z,4.47
2018-01-03T20:44:32.366Z,4.32
2018-01-03T20:46:58.234Z,3.40
2018-01-03T20:49:24.087Z,2.50
2018-01-03T20:51:49.907Z,3.50
2018-01-03T20:54:17.169Z,3.43
2018-01-03T20:56:43.034Z,3.03
2018-01-03T20:59:12.433Z,3.33
2018-01-03T21:01:38.260Z,2.28
2018-01-03T21:04:07.335Z,3.20
2018-01-03T21:06:33.159Z,4.35
2018-01-03T21:09:03.006Z,4.20
2018-01-03T21:11:28.819Z,3.90
2018-01-03T21:13:56.117Z,5.10
2018-01-03T21:16:21.925Z,3.30
2018-01-03T21:18:50.937Z,2.63
2018-01-03T21:21:16.735Z,2.70
2018-01-03T21:23:42.570Z,3.20
2018-01-03T21:26:08.401Z,2.63
2018-01-03T21:28:34.257Z,2.90
2018-01-03T21:31:03.504Z,4.73
2018-01-03T21:33:29.354Z,3.55
2018-01-03T21:35:57.139Z,2.87
2018-01-03T21:38:22.936Z,3.47
2018-01-03T21:43:19.503Z,2.40
2018-01-03T21:45:46.868Z,2.80
2018-01-03T21:48:12.711Z,2.40
2018-01-03T21:50:42.352Z,2.00
2018-01-03T21:53:08.228Z,3.17
2018-01-03T21:55:37.715Z,3.47
2018-01-03T21:58:03.533Z,3.15
2018-01-03T22:00:29.355Z,4.20
2018-01-03T22:02:55.174Z,4.03
2018-01-03T22:05:21.048Z,2.60
2018-01-03T22:07:48.082Z,3.20
2018-01-03T22:10:13.901Z,4.55
2018-01-03T22:12:43.519Z,2.83
2018-01-03T22:15:09.341Z,3.03
2018-01-03T22:17:38.268Z,3.70
2018-01-03T22:20:04.093Z,2.85
2018-01-03T22:22:33.674Z,1.73
2018-01-03T22:24:59.481Z,2.20
2018-01-03T22:27:28.667Z,3.00
2018-01-03T22:29:54.488Z,3.10
2018-01-03T22:32:21.846Z,1.80
2018-01-03T22:34:47.734Z,2.33
2018-01-03T22:37:13.608Z,3.60
2018-01-03T22:39:39.418Z,3.00
2018-01-03T22:42:05.262Z,3.20
2018-01-03T22:44:33.536Z,3.00
2018-01-03T22:46:59.377Z,2.62
2018-01-03T22:49:28.808Z,3.20
2018-01-03T22:51:54.609Z,4.40
2018-01-03T22:54:25.499Z,2.80
2018-01-03T22:56:51.378Z,3.08
2018-01-03T22:59:18.227Z,3.00
2018-01-03T23:01:44.056Z,2.20
2018-01-03T23:04:13.407Z,2.07
2018-01-03T23:06:39.238Z,2.90
2018-01-03T23:09:07.989Z,3.13
2018-01-03T23:11:33.818Z,1.05
2018-01-03T23:13:59.684Z,1.70
2018-01-03T23:16:25.497Z,3.10
2018-01-03T23:18:51.302Z,2.33
2018-01-03T23:21:19.134Z,2.50
2018-01-03T23:23:44.952Z,2.30
2018-01-03T23:26:13.985Z,2.23
2018-01-03T23:28:39.803Z,2.17
2018-01-03T23:31:09.411Z,2.17
2018-01-03T23:33:35.253Z,2.55
2018-01-03T23:36:04.480Z,1.90
2018-01-03T23:38:30.280Z,3.20
2018-01-03T23:40:57.723Z,1.60
2018-01-03T23:43:23.535Z,1.90
2018-01-03T23:45:52.961Z,2.07
2018-01-03T23:48:18.853Z,1.65
2018-01-03T23:50:44.713Z,1.80
2018-01-03T23:53:10.566Z,3.63
2018-01-03T23:55:36.394Z,2.67
2018-01-03T23:58:05.202Z,1.77
